createdAt,value
2023-03-08T00:00:01.028Z,99506.66
2023-03-08T00:02:28.397Z,99512.34
2023-03-08T00:04:56.271Z,99506.00
2023-03-08T00:07:24.404Z,99509.38
2023-03-08T00:09:51.691Z,99503.41
2023-03-08T00:12:22.880Z,99507.41
2023-03-08T00:14:51.137Z,99514.53
2023-03-08T00:17:18.656Z,99517.78
2023-03-08T00:19:46.393Z,99515.22
2023-03-08T00:22:13.814Z,99504.09
2023-03-08T00:24:41.127Z,99499.50
2023-03-08T00:27:08.460Z,99492.03
2023-03-08T00:29:35.895Z,99508.75
2023-03-08T00:32:03.444Z,99501.56
2023-03-08T00:34:30.784Z,99506.03
2023-03-08T00:36:58.080Z,99515.63
2023-03-08T00:39:25.389Z,99516.38
2023-03-08T00:41:52.714Z,99511.78
2023-03-08T00:44:20.125Z,99514.81
2023-03-08T00:46:47.524Z,99488.75
2023-03-08T00:49:14.989Z,99503.88
2023-03-08T00:51:42.426Z,99494.28
2023-03-08T00:54:10.750Z,99492.09
2023-03-08T00:56:38.726Z,99492.09
2023-03-08T00:59:06.352Z,99492.09
2023-03-08T01:01:34.719Z,99490.97
2023-03-08T01:04:03.828Z,99492.75
2023-03-08T01:06:31.182Z,99485.00
2023-03-08T01:08:58.537Z,99491.75
2023-03-08T01:11:27.066Z,99482.13
2023-03-08T01:13:55.128Z,99506.81
2023-03-08T01:16:31.130Z,99510.53
2023-03-08T01:19:01.329Z,99495.63
2023-03-08T01:21:31.040Z,99494.81
2023-03-08T01:23:58.913Z,99502.25
2023-03-08T01:26:28.519Z,99504.59
2023-03-08T01:28:57.401Z,99505.16
2023-03-08T01:31:27.350Z,99500.09
2023-03-08T01:33:57.067Z,99499.97
2023-03-08T01:36:26.637Z,99501.44
2023-03-08T01:38:54.578Z,99492.44
2023-03-08T01:41:28.136Z,99490.75
2023-03-08T01:43:55.793Z,99491.22
2023-03-08T01:46:36.574Z,99496.75
2023-03-08T01:49:35.797Z,99502.25
2023-03-08T01:52:12.278Z,99504.31
2023-03-08T01:54:47.989Z,99499.53
2023-03-08T01:57:24.649Z,99505.75
2023-03-08T01:59:55.464Z,99512.66
2023-03-08T02:02:28.509Z,99509.53
2023-03-08T02:04:56.718Z,99513.00
2023-03-08T02:07:24.326Z,99500.97
2023-03-08T02:09:51.824Z,99511.31
2023-03-08T02:12:19.980Z,99530.09
2023-03-08T02:14:47.934Z,99517.50
2023-03-08T02:17:15.377Z,99514.91
2023-03-08T02:19:53.096Z,99513.13
2023-03-08T02:22:21.157Z,99512.53
2023-03-08T02:24:48.746Z,99514.47
2023-03-08T02:27:27.174Z,99504.19
2023-03-08T02:29:54.528Z,99512.72
2023-03-08T02:32:23.509Z,99503.31
2023-03-08T02:34:50.912Z,99513.88
2023-03-08T02:37:18.225Z,99518.75
2023-03-08T02:39:48.639Z,99508.28
2023-03-08T02:42:16.045Z,99505.06
2023-03-08T02:44:43.683Z,99503.84
2023-03-08T02:47:11.103Z,99493.84
2023-03-08T02:49:38.783Z,99486.56
2023-03-08T02:52:06.185Z,99488.97
2023-03-08T02:54:33.546Z,99485.97
2023-03-08T02:57:01.859Z,99488.44
2023-03-08T02:59:30.952Z,99498.22
2023-03-08T03:01:59.704Z,99487.69
2023-03-08T03:04:33.445Z,99487.63
2023-03-08T03:07:01.194Z,99488.84
2023-03-08T03:09:30.382Z,99491.66
2023-03-08T03:11:58.049Z,99499.81
2023-03-08T03:14:28.382Z,99492.53
2023-03-08T03:16:56.849Z,99506.88
2023-03-08T03:19:27.979Z,99497.72
2023-03-08T03:21:55.612Z,99505.09
2023-03-08T03:24:23.072Z,99505.84
2023-03-08T03:26:54.354Z,99498.03
2023-03-08T03:29:23.450Z,99517.69
2023-03-08T03:31:56.877Z,99517.25
2023-03-08T03:34:24.494Z,99514.56
2023-03-08T03:36:52.455Z,99524.41
2023-03-08T03:39:20.023Z,99525.94
2023-03-08T03:41:49.125Z,99532.16
2023-03-08T03:44:17.424Z,99525.59
2023-03-08T03:46:47.291Z,99522.94
2023-03-08T03:49:17.331Z,99531.22
2023-03-08T03:51:46.763Z,99531.41
2023-03-08T03:54:19.757Z,99528.50
2023-03-08T03:56:48.789Z,99531.09
2023-03-08T03:59:16.669Z,99526.44
2023-03-08T04:01:44.377Z,99529.63
2023-03-08T04:04:23.755Z,99531.34
2023-03-08T04:06:53.454Z,99540.78
2023-03-08T04:09:24.725Z,99538.78
2023-03-08T04:12:05.724Z,99547.53
2023-03-08T04:14:34.412Z,99547.91
2023-03-08T04:17:01.984Z,99563.34
2023-03-08T04:19:37.897Z,99571.75
2023-03-08T04:22:06.612Z,99565.41
2023-03-08T04:24:40.973Z,99567.78
2023-03-08T04:27:12.849Z,99565.06
2023-03-08T04:29:40.288Z,99571.50
2023-03-08T04:32:08.329Z,99568.28
2023-03-08T04:34:47.009Z,99566.38
2023-03-08T04:37:17.777Z,99587.97
2023-03-08T04:39:49.607Z,99586.63
2023-03-08T04:42:18.125Z,99580.22
2023-03-08T04:44:47.171Z,99587.34
2023-03-08T04:47:18.713Z,99580.59
2023-03-08T04:49:46.627Z,99590.56
2023-03-08T04:52:14.068Z,99576.41
2023-03-08T04:54:43.134Z,99574.44
2023-03-08T04:57:36.632Z,99579.97
2023-03-08T05:00:05.979Z,99586.47
2023-03-08T05:02:37.579Z,99583.63
2023-03-08T05:05:07.708Z,99586.72
2023-03-08T05:07:35.646Z,99597.41
2023-03-08T05:10:03.646Z,99606.69
2023-03-08T05:12:31.078Z,99605.00
2023-03-08T05:15:00.916Z,99584.59
2023-03-08T05:17:28.815Z,99592.84
2023-03-08T05:19:56.398Z,99605.00
2023-03-08T05:22:31.628Z,99599.63
2023-03-08T05:24:59.344Z,99593.00
2023-03-08T05:27:27.727Z,99586.53
2023-03-08T05:29:55.945Z,99593.16
2023-03-08T05:32:23.539Z,99588.59
2023-03-08T05:34:55.023Z,99586.53
2023-03-08T05:37:30.791Z,99584.00
2023-03-08T05:40:06.001Z,99579.72
2023-03-08T05:42:35.815Z,99584.91
2023-03-08T05:45:04.125Z,99583.59
2023-03-08T05:47:35.998Z,99585.94
2023-03-08T05:50:03.837Z,99590.75
2023-03-08T05:52:35.168Z,99579.56
2023-03-08T05:55:03.512Z,99597.25
2023-03-08T05:57:31.050Z,99602.03
2023-03-08T05:59:59.137Z,99600.31
2023-03-08T06:02:29.040Z,99606.19
2023-03-08T06:04:56.553Z,99598.84
2023-03-08T06:07:27.308Z,99593.25
2023-03-08T06:10:05.699Z,99601.19
2023-03-08T06:12:33.186Z,99602.09
2023-03-08T06:15:03.934Z,99615.06
2023-03-08T06:17:35.415Z,99605.16
2023-03-08T06:20:02.924Z,99619.75
2023-03-08T06:22:33.113Z,99616.00
2023-03-08T06:25:02.313Z,99621.13
2023-03-08T06:27:34.463Z,99623.03
2023-03-08T06:30:06.164Z,99637.00
2023-03-08T06:32:35.719Z,99630.53
2023-03-08T06:35:04.177Z,99629.06
2023-03-08T06:37:34.650Z,99636.84
2023-03-08T06:40:04.913Z,99652.53
2023-03-08T06:42:41.112Z,99654.31
2023-03-08T06:45:10.405Z,99653.13
2023-03-08T06:47:37.737Z,99668.66
2023-03-08T06:50:05.841Z,99653.53
2023-03-08T06:52:37.738Z,99663.13
2023-03-08T06:55:07.263Z,99650.88
2023-03-08T06:57:34.695Z,99658.25
2023-03-08T07:00:02.254Z,99658.50
2023-03-08T07:02:29.689Z,99681.56
2023-03-08T07:04:57.161Z,99673.75
2023-03-08T07:07:24.596Z,99691.59
2023-03-08T07:09:52.041Z,99699.56
2023-03-08T07:12:19.536Z,99691.00
2023-03-08T07:14:46.966Z,99711.94
2023-03-08T07:17:14.438Z,99705.72
2023-03-08T07:19:41.702Z,99705.06
2023-03-08T07:22:09.046Z,99711.50
2023-03-08T07:24:36.363Z,99706.84
2023-03-08T07:27:04.019Z,99709.31
2023-03-08T07:29:31.428Z,99718.28
2023-03-08T07:31:58.772Z,99718.28
2023-03-08T07:34:26.093Z,99717.50
2023-03-08T07:36:53.442Z,99714.09
2023-03-08T07:39:20.954Z,99724.47
2023-03-08T07:41:48.452Z,99719.94
2023-03-08T07:44:15.981Z,99727.59
2023-03-08T07:46:43.845Z,99725.00
2023-03-08T07:49:11.819Z,99716.13
2023-03-08T07:51:39.420Z,99719.53
2023-03-08T07:54:07.662Z,99724.84
2023-03-08T07:56:35.042Z,99724.28
2023-03-08T07:59:02.503Z,99710.69
2023-03-08T08:01:30.092Z,99716.41
2023-03-08T08:03:59.177Z,99707.16
2023-03-08T08:06:27.978Z,99717.41
2023-03-08T08:08:56.316Z,99723.19
2023-03-08T08:11:23.705Z,99734.25
2023-03-08T08:13:51.056Z,99730.72
2023-03-08T08:16:18.871Z,99745.31
2023-03-08T08:18:46.542Z,99755.84
2023-03-08T08:21:16.152Z,99763.50
2023-03-08T08:23:43.958Z,99771.91
2023-03-08T08:26:26.605Z,99760.16
2023-03-08T08:28:55.212Z,99767.34
2023-03-08T08:31:24.913Z,99774.78
2023-03-08T08:33:52.688Z,99781.88
2023-03-08T08:36:21.276Z,99772.00
2023-03-08T08:38:52.076Z,99773.22
2023-03-08T08:41:21.802Z,99779.25
2023-03-08T08:43:49.723Z,99774.41
2023-03-08T08:46:17.573Z,99770.31
2023-03-08T08:48:44.937Z,99765.19
2023-03-08T08:51:14.659Z,99761.41
2023-03-08T08:53:42.066Z,99764.03
2023-03-08T08:56:23.757Z,99755.69
2023-03-08T08:58:53.677Z,99757.78
2023-03-08T09:01:27.079Z,99743.88
2023-03-08T09:03:54.586Z,99742.53
2023-03-08T09:06:23.489Z,99747.44
2023-03-08T09:08:52.501Z,99742.50
2023-03-08T09:11:19.907Z,99746.03
2023-03-08T09:13:47.251Z,99732.56
2023-03-08T09:16:31.534Z,99734.31
2023-03-08T09:19:00.827Z,99748.63
2023-03-08T09:21:29.239Z,99753.91
2023-03-08T09:24:00.520Z,99770.38
2023-03-08T09:26:34.701Z,99760.59
2023-03-08T09:29:05.611Z,99762.44
2023-03-08T09:31:35.374Z,99760.56
2023-03-08T09:34:05.261Z,99770.97
2023-03-08T09:36:32.610Z,99773.34
2023-03-08T09:39:00.120Z,99770.19
2023-03-08T09:41:36.120Z,99763.31
2023-03-08T09:44:16.460Z,99778.97
2023-03-08T09:46:53.330Z,99781.06
2023-03-08T09:49:29.962Z,99792.53
2023-03-08T09:52:06.995Z,99802.69
2023-03-08T09:54:38.385Z,99797.88
2023-03-08T09:57:11.950Z,99798.31
2023-03-08T09:59:54.614Z,99788.84
2023-03-08T10:02:50.079Z,99787.91
2023-03-08T10:05:26.892Z,99771.59
2023-03-08T10:08:15.829Z,99780.50
2023-03-08T10:11:13.538Z,99778.31
2023-03-08T10:13:43.992Z,99773.19
2023-03-08T10:16:25.029Z,99778.09
2023-03-08T10:19:01.287Z,99781.59
2023-03-08T10:21:32.137Z,99779.72
2023-03-08T10:24:26.630Z,99787.16
2023-03-08T10:27:11.331Z,99770.13
2023-03-08T10:29:39.014Z,99777.91
2023-03-08T10:32:07.352Z,99759.31
2023-03-08T10:34:35.190Z,99766.44
2023-03-08T10:37:06.460Z,99766.84
2023-03-08T10:39:36.427Z,99753.78
2023-03-08T10:42:15.597Z,99761.59
2023-03-08T10:44:57.369Z,99759.72
2023-03-08T10:47:26.370Z,99753.00
2023-03-08T10:50:13.934Z,99761.47
2023-03-08T10:52:42.148Z,99756.41
2023-03-08T10:55:09.673Z,99753.03
2023-03-08T10:57:38.411Z,99738.34
2023-03-08T11:00:43.133Z,99740.91
2023-03-08T11:03:10.529Z,99736.28
2023-03-08T11:05:38.594Z,99732.72
2023-03-08T11:08:18.121Z,99738.34
2023-03-08T11:10:48.670Z,99723.22
2023-03-08T11:13:26.429Z,99732.47
2023-03-08T11:16:01.389Z,99738.84
2023-03-08T11:18:39.973Z,99720.53
2023-03-08T11:21:17.471Z,99713.09
2023-03-08T11:24:01.867Z,99698.72
2023-03-08T11:26:57.800Z,99682.84
2023-03-08T11:29:47.220Z,99684.97
2023-03-08T11:32:49.764Z,99680.69
2023-03-08T11:35:27.021Z,99686.06
2023-03-08T11:38:32.941Z,99688.44
2023-03-08T11:41:09.355Z,99703.09
2023-03-08T11:43:42.365Z,99695.81
2023-03-08T11:46:29.041Z,99693.59
2023-03-08T11:49:37.193Z,99674.78
2023-03-08T11:52:35.739Z,99661.63
2023-03-08T11:55:20.634Z,99666.63
2023-03-08T11:57:58.154Z,99679.28
2023-03-08T12:00:36.549Z,99696.56
2023-03-08T12:03:15.486Z,99701.56
2023-03-08T12:05:49.489Z,99699.19
2023-03-08T12:08:27.356Z,99697.63
2023-03-08T12:11:10.190Z,99692.28
2023-03-08T12:13:42.077Z,99682.03
2023-03-08T12:16:22.992Z,99682.13
2023-03-08T12:19:06.674Z,99688.53
2023-03-08T12:21:58.496Z,99695.75
2023-03-08T12:24:44.093Z,99688.47
2023-03-08T12:27:29.995Z,99701.69
2023-03-08T12:30:23.718Z,99715.88
2023-03-08T12:32:54.758Z,99709.19
2023-03-08T12:35:28.257Z,99697.97
2023-03-08T12:38:17.577Z,99704.31
2023-03-08T12:40:52.835Z,99707.94
2023-03-08T12:43:20.183Z,99703.81
2023-03-08T12:46:01.395Z,99692.69
2023-03-08T12:48:35.818Z,99690.41
2023-03-08T12:51:12.623Z,99693.25
2023-03-08T12:53:55.555Z,99697.22
2023-03-08T12:56:29.927Z,99697.00
2023-03-08T12:59:03.774Z,99671.13
2023-03-08T13:01:38.808Z,99670.91
2023-03-08T13:04:41.694Z,99657.13
2023-03-08T13:07:31.980Z,99649.94
2023-03-08T13:10:03.232Z,99650.19
2023-03-08T13:12:51.082Z,99641.38
2023-03-08T13:15:23.078Z,99637.97
2023-03-08T13:18:06.321Z,99637.31
2023-03-08T13:20:41.634Z,99628.59
2023-03-08T13:23:15.558Z,99637.13
2023-03-08T13:26:20.909Z,99623.03
2023-03-08T13:28:49.101Z,99631.72
2023-03-08T13:31:20.475Z,99623.19
2023-03-08T13:33:50.708Z,99614.41
2023-03-08T13:36:29.285Z,99607.03
2023-03-08T13:39:08.749Z,99607.69
2023-03-08T13:41:45.282Z,99600.72
2023-03-08T13:44:25.143Z,99612.13
2023-03-08T13:46:58.680Z,99608.31
2023-03-08T13:49:32.310Z,99610.84
2023-03-08T13:52:04.368Z,99609.25
2023-03-08T13:54:39.185Z,99613.53
2023-03-08T13:57:26.434Z,99609.28
2023-03-08T14:00:01.200Z,99602.31
2023-03-08T14:02:34.990Z,99603.31
2023-03-08T14:05:18.552Z,99618.19
2023-03-08T14:08:50.592Z,99607.84
2023-03-08T14:11:23.830Z,99609.66
2023-03-08T14:13:55.115Z,99597.75
2023-03-08T14:16:42.327Z,99599.41
2023-03-08T14:19:12.687Z,99600.97
2023-03-08T14:21:53.541Z,99610.00
2023-03-08T14:24:42.644Z,99609.91
2023-03-08T14:27:15.855Z,99606.09
2023-03-08T14:29:45.415Z,99610.59
2023-03-08T14:32:13.311Z,99607.19
2023-03-08T14:34:49.990Z,99623.94
2023-03-08T14:37:29.051Z,99635.25
2023-03-08T14:40:11.596Z,99637.19
2023-03-08T14:42:44.224Z,99631.63
2023-03-08T14:45:33.296Z,99639.56
2023-03-08T14:48:14.824Z,99642.47
2023-03-08T14:50:56.305Z,99654.72
2023-03-08T14:53:38.783Z,99637.19
2023-03-08T14:56:12.492Z,99658.09
2023-03-08T14:58:43.706Z,99658.94
2023-03-08T15:01:11.135Z,99657.53
2023-03-08T15:03:39.139Z,99658.88
2023-03-08T15:06:21.057Z,99655.03
2023-03-08T15:08:49.148Z,99660.19
2023-03-08T15:11:17.268Z,99654.16
2023-03-08T15:13:46.079Z,99647.88
2023-03-08T15:16:14.597Z,99636.66
2023-03-08T15:18:42.628Z,99628.88
2023-03-08T15:21:17.624Z,99615.03
2023-03-08T15:23:45.303Z,99612.44
2023-03-08T15:26:21.004Z,99611.56
2023-03-08T15:28:48.470Z,99612.13
2023-03-08T15:31:15.780Z,99613.84
2023-03-08T15:33:43.236Z,99616.94
2023-03-08T15:36:14.749Z,99625.63
2023-03-08T15:38:42.602Z,99625.16
2023-03-08T15:41:17.322Z,99628.91
2023-03-08T15:43:44.816Z,99622.75
2023-03-08T15:46:13.786Z,99624.59
2023-03-08T15:48:42.308Z,99610.41
2023-03-08T15:51:21.294Z,99614.34
2023-03-08T15:53:49.901Z,99610.13
2023-03-08T15:56:17.522Z,99600.63
2023-03-08T15:58:44.857Z,99596.84
2023-03-08T16:01:12.205Z,99596.06
2023-03-08T16:03:39.657Z,99608.97
2023-03-08T16:06:11.748Z,99598.44
2023-03-08T16:08:39.814Z,99600.75
2023-03-08T16:11:08.510Z,99605.44
2023-03-08T16:13:35.820Z,99621.44
2023-03-08T16:16:04.832Z,99621.72
2023-03-08T16:18:33.595Z,99620.25
2023-03-08T16:21:01.146Z,99632.75
2023-03-08T16:23:28.472Z,99632.91
2023-03-08T16:26:38.817Z,99607.22
2023-03-08T16:29:06.136Z,99605.44
2023-03-08T16:31:33.990Z,99595.56
2023-03-08T16:34:05.653Z,99610.50
2023-03-08T16:36:34.297Z,99611.25
2023-03-08T16:39:01.563Z,99624.25
2023-03-08T16:41:30.112Z,99621.22
2023-03-08T16:43:58.086Z,99625.81
2023-03-08T16:46:25.451Z,99625.53
2023-03-08T16:48:54.599Z,99635.03
2023-03-08T16:51:25.356Z,99619.25
2023-03-08T16:53:52.972Z,99620.47
2023-03-08T16:56:23.636Z,99617.81
2023-03-08T16:58:51.852Z,99615.88
2023-03-08T17:01:19.704Z,99619.81
2023-03-08T17:03:47.441Z,99615.41
2023-03-08T17:06:20.359Z,99613.84
2023-03-08T17:08:48.112Z,99607.84
2023-03-08T17:11:16.468Z,99607.06
2023-03-08T17:13:47.048Z,99608.38
2023-03-08T17:16:15.104Z,99609.25
2023-03-08T17:18:42.643Z,99617.47
2023-03-08T17:21:10.057Z,99603.28
2023-03-08T17:23:37.398Z,99603.88
2023-03-08T17:29:14.608Z,99620.31
2023-03-08T17:31:42.067Z,99610.66
2023-03-08T17:34:09.757Z,99609.03
2023-03-08T17:36:37.300Z,99630.53
2023-03-08T17:39:04.756Z,99620.94
2023-03-08T17:41:32.625Z,99605.41
2023-03-08T17:44:00.039Z,99610.53
2023-03-08T17:46:27.934Z,99632.09
2023-03-08T17:48:56.079Z,99656.81
2023-03-08T17:51:25.835Z,99657.38
2023-03-08T17:53:54.259Z,99664.22
2023-03-08T17:56:26.438Z,99652.66
2023-03-08T17:58:55.884Z,99649.81
2023-03-08T18:01:25.745Z,99659.66
2023-03-08T18:03:55.350Z,99649.22
2023-03-08T18:06:38.284Z,99660.19
2023-03-08T18:09:08.420Z,99666.75
2023-03-08T18:11:37.847Z,99659.78
2023-03-08T18:14:07.271Z,99684.44
2023-03-08T18:16:35.212Z,99696.53
2023-03-08T18:19:04.316Z,99684.00
2023-03-08T18:21:33.575Z,99693.19
2023-03-08T18:24:01.085Z,99685.06
2023-03-08T18:26:36.424Z,99688.00
2023-03-08T18:29:03.858Z,99691.47
2023-03-08T18:31:35.033Z,99681.00
2023-03-08T18:34:02.971Z,99676.78
2023-03-08T18:36:30.795Z,99683.19
2023-03-08T18:38:58.362Z,99677.91
2023-03-08T18:41:28.004Z,99685.75
2023-03-08T18:43:57.621Z,99683.75
2023-03-08T18:46:30.375Z,99689.97
2023-03-08T18:49:01.027Z,99691.47
2023-03-08T18:51:30.095Z,99692.13
2023-03-08T18:53:58.516Z,99682.03
2023-03-08T18:56:27.426Z,99682.41
2023-03-08T18:58:57.463Z,99688.75
2023-03-08T19:01:25.294Z,99689.03
2023-03-08T19:03:52.631Z,99691.44
2023-03-08T19:06:20.166Z,99699.31
2023-03-08T19:08:47.610Z,99696.69
2023-03-08T19:11:18.811Z,99678.44
2023-03-08T19:13:46.788Z,99689.28
2023-03-08T19:16:21.204Z,99689.44
2023-03-08T19:18:50.116Z,99680.03
2023-03-08T19:21:20.344Z,99687.81
2023-03-08T19:23:48.390Z,99688.06
2023-03-08T19:26:37.395Z,99687.28
2023-03-08T19:29:11.407Z,99681.25
2023-03-08T19:31:44.936Z,99663.94
2023-03-08T19:34:13.685Z,99677.00
2023-03-08T19:36:43.240Z,99693.91
2023-03-08T19:39:15.343Z,99691.69
2023-03-08T19:41:43.576Z,99675.31
2023-03-08T19:44:11.074Z,99666.63
2023-03-08T19:46:39.680Z,99663.31
2023-03-08T19:49:08.888Z,99666.31
2023-03-08T19:51:36.513Z,99676.75
2023-03-08T19:54:06.037Z,99654.97
2023-03-08T19:56:34.338Z,99664.03
2023-03-08T19:59:02.395Z,99664.72
2023-03-08T20:01:29.922Z,99679.81
2023-03-08T20:03:57.641Z,99683.34
2023-03-08T20:06:37.155Z,99692.03
2023-03-08T20:09:07.483Z,99689.19
2023-03-08T20:11:35.025Z,99677.09
2023-03-08T20:14:02.802Z,99692.06
2023-03-08T20:16:31.374Z,99689.97
2023-03-08T20:18:58.941Z,99684.16
2023-03-08T20:21:28.567Z,99693.59
2023-03-08T20:23:57.578Z,99689.28
2023-03-08T20:27:09.460Z,99701.16
2023-03-08T20:29:36.863Z,99696.47
2023-03-08T20:32:04.545Z,99702.28
2023-03-08T20:34:32.716Z,99711.41
2023-03-08T20:37:00.127Z,99694.09
2023-03-08T20:39:27.526Z,99700.22
2023-03-08T20:41:56.081Z,99697.97
2023-03-08T20:44:23.608Z,99698.66
2023-03-08T20:46:51.055Z,99697.03
2023-03-08T20:49:18.529Z,99697.34
2023-03-08T20:51:46.004Z,99702.38
2023-03-08T20:54:13.825Z,99698.00
2023-03-08T20:56:41.282Z,99694.72
2023-03-08T20:59:08.678Z,99692.09
2023-03-08T21:01:36.940Z,99691.91
2023-03-08T21:04:05.361Z,99681.38
2023-03-08T21:06:32.802Z,99687.44
2023-03-08T21:09:00.968Z,99697.81
2023-03-08T21:11:29.023Z,99690.72
2023-03-08T21:13:56.636Z,99698.75
2023-03-08T21:16:25.919Z,99676.22
2023-03-08T21:18:56.421Z,99693.50
2023-03-08T21:21:35.800Z,99690.28
2023-03-08T21:24:07.112Z,99678.03
2023-03-08T21:26:34.878Z,99689.22
2023-03-08T21:29:05.156Z,99675.56
2023-03-08T21:31:35.008Z,99679.09
2023-03-08T21:34:04.010Z,99656.38
2023-03-08T21:36:31.954Z,99655.44
2023-03-08T21:38:59.551Z,99656.38
2023-03-08T21:41:30.331Z,99661.41
2023-03-08T21:43:58.388Z,99646.81
2023-03-08T21:46:25.969Z,99658.28
2023-03-08T21:48:55.416Z,99663.22
2023-03-08T21:51:23.937Z,99659.91
2023-03-08T21:53:51.572Z,99663.38
2023-03-08T21:56:19.717Z,99661.41
2023-03-08T21:58:47.158Z,99651.13
2023-03-08T22:01:23.114Z,99655.03
2023-03-08T22:03:50.767Z,99641.38
2023-03-08T22:06:19.090Z,99629.59
2023-03-08T22:08:46.884Z,99631.72
2023-03-08T22:11:15.146Z,99646.81
2023-03-08T22:13:43.121Z,99636.75
2023-03-08T22:16:10.763Z,99639.97
2023-03-08T22:18:38.167Z,99640.16
2023-03-08T22:21:05.632Z,99632.91
2023-03-08T22:23:33.110Z,99641.38
2023-03-08T22:26:00.597Z,99633.06
2023-03-08T22:28:27.942Z,99639.66
2023-03-08T22:30:55.315Z,99629.91
2023-03-08T22:33:22.710Z,99629.38
2023-03-08T22:35:50.143Z,99627.56
2023-03-08T22:38:19.345Z,99627.72
2023-03-08T22:40:46.712Z,99632.72
2023-03-08T22:43:14.227Z,99634.31
2023-03-08T22:45:41.626Z,99624.72
2023-03-08T22:48:09.252Z,99635.31
2023-03-08T22:50:36.652Z,99619.22
2023-03-08T22:53:04.060Z,99628.97
2023-03-08T22:55:31.565Z,99622.03
2023-03-08T22:57:59.345Z,99626.16
2023-03-08T23:00:26.870Z,99618.91
2023-03-08T23:02:58.237Z,99630.91
2023-03-08T23:05:25.646Z,99620.00
2023-03-08T23:07:53.311Z,99615.75
2023-03-08T23:10:21.454Z,99615.69
2023-03-08T23:12:48.941Z,99614.78
2023-03-08T23:15:16.420Z,99612.22
2023-03-08T23:17:43.810Z,99612.13
2023-03-08T23:20:12.110Z,99614.03
2023-03-08T23:22:39.469Z,99604.88
2023-03-08T23:25:07.274Z,99613.34
2023-03-08T23:27:34.659Z,99605.22
2023-03-08T23:30:02.222Z,99603.06
2023-03-08T23:32:29.650Z,99601.44
2023-03-08T23:34:57.181Z,99604.81
2023-03-08T23:37:24.610Z,99609.09
2023-03-08T23:39:52.262Z,99587.84
2023-03-08T23:42:19.583Z,99591.44
2023-03-08T23:44:46.983Z,99590.53
2023-03-08T23:47:14.364Z,99604.41
2023-03-08T23:49:41.684Z,99611.31
2023-03-08T23:52:09.050Z,99607.25
2023-03-08T23:54:36.475Z,99601.22
2023-03-08T23:57:03.964Z,99589.03
2023-03-08T23:59:31.366Z,99599.25
